Time;durP1;ratioP1;P1;durP2;ratioP2;P2;SDS_P1;SDS_P2;PMS_P1;PMS_P2;Temp;Humidity;BMP_temperature;BMP_pressure;BME280_temperature;BME280_humidity;BME280_pressure;Samples;Min_cycle;Max_cycle;Signal;HPM_P1;HPM_P2
2022/06/18 00:00:20;;;;;;;3.00;2.80;;;22.70;96.30;;;;;;4916354;29;20815;-70
2022/06/18 00:02:46;;;;;;;3.00;2.70;;;22.70;96.40;;;;;;4916232;29;20538;-75
2022/06/18 00:05:15;;;;;;;3.00;2.80;;;22.70;96.50;;;;;;4916248;29;20428;-73
2022/06/18 00:07:45;;;;;;;3.83;2.67;;;22.70;96.50;;;;;;4916051;29;20673;-73
2022/06/18 00:10:20;;;;;;;3.50;3.07;;;22.80;96.30;;;;;;4916081;29;20908;-73
2022/06/18 00:15:35;;;;;;;5.87;3.07;;;22.70;96.40;;;;;;4919011;29;20446;-73
2022/06/18 00:18:01;;;;;;;3.20;2.93;;;22.70;96.60;;;;;;4919524;29;20423;-72
2022/06/18 00:20:30;;;;;;;6.17;2.70;;;22.70;96.80;;;;;;4919447;29;20602;-72
2022/06/18 00:22:59;;;;;;;5.40;2.70;;;22.70;96.50;;;;;;4919277;29;20454;-73
2022/06/18 00:25:38;;;;;;;2.90;2.57;;;22.70;97.00;;;;;;4919474;29;20427;-73
2022/06/18 00:28:11;;;;;;;3.30;3.00;;;22.70;97.00;;;;;;4919347;29;20568;-73
2022/06/18 00:30:38;;;;;;;2.93;2.63;;;22.70;97.10;;;;;;4919094;29;20463;-73
2022/06/18 00:33:04;;;;;;;3.93;2.50;;;22.70;97.00;;;;;;4919169;29;20444;-73
2022/06/18 00:35:29;;;;;;;3.60;3.07;;;22.70;97.30;;;;;;4919291;29;20447;-72
2022/06/18 00:37:58;;;;;;;4.03;3.10;;;22.60;97.60;;;;;;4919170;29;20179;-72
2022/06/18 00:40:30;;;;;;;2.83;2.63;;;22.60;97.80;;;;;;4919048;29;20211;-72
2022/06/18 00:43:04;;;;;;;4.30;3.20;;;22.60;98.20;;;;;;4919053;29;20435;-72
2022/06/18 00:45:31;;;;;;;7.33;3.70;;;22.60;99.90;;;;;;4919129;29;20463;-72
2022/06/18 00:48:04;;;;;;;3.43;3.13;;;22.50;99.90;;;;;;4918947;29;20444;-72
2022/06/18 00:50:51;;;;;;;4.97;3.40;;;22.50;99.90;;;;;;4919025;29;20432;-72
2022/06/18 00:53:36;;;;;;;6.93;3.03;;;22.50;99.80;;;;;;4918839;29;20514;-71
2022/06/18 00:56:10;;;;;;;3.27;2.57;;;22.50;99.30;;;;;;4918925;29;20978;-72
2022/06/18 00:58:48;;;;;;;6.77;2.90;;;22.50;99.60;;;;;;4918894;29;20426;-72
2022/06/18 01:01:33;;;;;;;3.57;3.23;;;22.50;99.60;;;;;;4901802;29;20479;-72
2022/06/18 01:03:59;;;;;;;7.67;3.40;;;22.50;99.90;;;;;;4918728;29;20424;-73
2022/06/18 01:06:30;;;;;;;4.27;3.97;;;22.40;99.90;;;;;;4918702;29;20420;-73
2022/06/18 01:09:04;;;;;;;4.33;3.30;;;22.40;99.90;;;;;;4918625;29;20172;-73
2022/06/18 01:11:33;;;;;;;5.13;3.60;;;22.30;99.90;;;;;;4918696;29;20438;-71
2022/06/18 01:14:01;;;;;;;3.97;3.67;;;22.30;99.90;;;;;;4918498;29;20526;-73
2022/06/18 01:16:28;;;;;;;3.43;3.13;;;22.20;99.90;;;;;;4918616;29;20790;-73
2022/06/18 01:18:53;;;;;;;3.53;3.03;;;22.20;99.90;;;;;;4918456;29;20780;-73
2022/06/18 01:21:44;;;;;;;3.30;3.00;;;22.20;99.90;;;;;;4918344;29;20480;-73
2022/06/18 01:24:23;;;;;;;11.43;3.60;;;22.20;99.90;;;;;;4918466;29;20179;-73
2022/06/18 04:30:54;;;;;;;3.00;2.70;;;22.60;99.90;;;;;;5731385;23;20508;-70
2022/06/18 04:33:20;;;;;;;5.40;2.80;;;22.60;99.90;;;;;;4938428;29;20843;-70
2022/06/18 04:35:45;;;;;;;5.50;2.67;;;22.60;99.90;;;;;;4938246;29;20278;-70
2022/06/18 04:38:12;;;;;;;3.63;2.50;;;22.60;99.90;;;;;;4938244;29;20277;-69
2022/06/18 04:40:38;;;;;;;6.00;3.10;;;22.70;99.90;;;;;;4938153;29;20662;-70
2022/06/18 04:43:06;;;;;;;4.83;4.10;;;22.70;99.90;;;;;;4938253;29;20437;-70
2022/06/18 04:45:33;;;;;;;6.20;3.87;;;22.70;99.90;;;;;;4938099;29;20179;-68
2022/06/18 04:47:59;;;;;;;3.80;3.47;;;22.80;99.90;;;;;;4938104;29;20786;-69
2022/06/18 04:50:30;;;;;;;4.73;3.57;;;22.80;99.90;;;;;;4938231;29;20423;-70
2022/06/18 04:52:56;;;;;;;4.20;2.67;;;22.90;99.90;;;;;;4937969;29;20435;-74
2022/06/18 04:55:21;;;;;;;4.00;3.20;;;22.90;99.90;;;;;;4929208;29;20535;-78
2022/06/18 04:57:47;;;;;;;3.30;2.73;;;22.90;99.90;;;;;;4928875;29;20642;-75
2022/06/18 05:00:13;;;;;;;3.73;2.70;;;23.00;99.90;;;;;;4927630;29;20183;-74
2022/06/18 05:02:39;;;;;;;3.73;2.73;;;23.00;99.90;;;;;;4926594;29;20229;-74
2022/06/18 05:05:08;;;;;;;4.83;3.17;;;23.00;99.90;;;;;;4927968;29;20529;-75
2022/06/18 05:07:33;;;;;;;4.70;3.13;;;23.10;99.90;;;;;;4927458;29;20636;-75
2022/06/18 05:09:59;;;;;;;3.53;2.63;;;23.10;99.90;;;;;;4926614;29;20431;-75
2022/06/18 05:12:24;;;;;;;6.43;3.30;;;23.20;99.90;;;;;;4928663;29;20523;-73
2022/06/18 05:14:50;;;;;;;3.00;2.63;;;23.20;99.90;;;;;;4927217;29;20515;-76
2022/06/18 05:17:24;;;;;;;4.50;2.87;;;23.30;99.90;;;;;;4927207;29;20258;-74
2022/06/18 05:19:50;;;;;;;7.40;3.83;;;23.30;99.90;;;;;;4931340;29;20208;-76
2022/06/18 05:22:16;;;;;;;5.07;3.60;;;23.30;99.90;;;;;;4945902;29;20505;-76
2022/06/18 05:24:41;;;;;;;6.83;3.17;;;23.40;99.90;;;;;;4946019;29;20612;-77
2022/06/18 05:27:17;;;;;;;4.50;2.83;;;23.40;99.90;;;;;;4947605;29;21169;-78
2022/06/18 05:29:43;;;;;;;8.60;3.10;;;23.50;99.90;;;;;;4945221;29;20518;-76
2022/06/18 05:32:08;;;;;;;5.50;3.37;;;23.60;99.90;;;;;;4947624;29;20528;-75
2022/06/18 05:34:34;;;;;;;3.00;2.60;;;23.60;99.90;;;;;;4948387;29;20194;-71
2022/06/18 05:37:00;;;;;;;3.10;2.80;;;23.70;99.90;;;;;;4953903;29;20175;-70
2022/06/18 05:39:25;;;;;;;4.60;3.40;;;23.70;99.90;;;;;;4950790;29;20549;-71
2022/06/18 05:41:51;;;;;;;9.30;3.50;;;23.70;99.90;;;;;;4956463;29;20689;-71
2022/06/18 05:44:16;;;;;;;4.87;3.37;;;23.80;99.90;;;;;;4939286;29;20174;-70
2022/06/18 05:46:42;;;;;;;4.10;3.13;;;23.90;99.90;;;;;;4956317;29;20194;-71
2022/06/18 05:49:08;;;;;;;5.63;3.27;;;24.00;99.90;;;;;;4952076;29;20277;-73
2022/06/18 05:51:34;;;;;;;7.23;3.13;;;24.00;99.90;;;;;;4933361;29;20184;-72
2022/06/18 05:53:59;;;;;;;4.80;3.23;;;24.10;99.90;;;;;;4950536;29;20966;-71
2022/06/18 05:56:25;;;;;;;4.13;2.70;;;24.20;99.90;;;;;;4935321;29;20674;-72
2022/06/18 05:58:51;;;;;;;4.20;3.20;;;24.20;99.90;;;;;;4933826;29;20578;-69
2022/06/18 06:01:16;;;;;;;10.77;3.43;;;24.20;99.90;;;;;;4929830;29;20222;-69
2022/06/18 06:03:42;;;;;;;3.43;3.03;;;24.30;99.90;;;;;;4931668;29;20178;-69
2022/06/18 06:06:07;;;;;;;3.90;3.13;;;24.30;99.90;;;;;;4929868;29;20175;-70
2022/06/18 06:08:33;;;;;;;7.27;3.57;;;24.40;99.90;;;;;;4935016;29;20184;-70
2022/06/18 06:13:43;;;;;;;5.67;3.40;;;24.50;99.90;;;;;;4946301;29;20748;-71
2022/06/18 06:16:09;;;;;;;3.80;3.20;;;24.60;99.90;;;;;;4928053;29;20458;-71
2022/06/18 06:18:35;;;;;;;3.67;3.37;;;24.60;99.90;;;;;;4950827;29;20212;-70
2022/06/18 06:21:01;;;;;;;3.67;3.30;;;24.70;99.90;;;;;;4954454;29;20553;-70
2022/06/18 06:23:28;;;;;;;5.43;3.93;;;24.70;99.90;;;;;;4954040;29;20637;-71
2022/06/18 06:25:54;;;;;;;9.37;4.23;;;24.80;99.90;;;;;;4955165;29;20438;-73
2022/06/18 06:28:24;;;;;;;5.27;3.23;;;24.90;99.90;;;;;;4955603;29;20921;-73
2022/06/18 06:30:51;;;;;;;9.60;4.10;;;24.90;99.90;;;;;;4955151;29;20983;-74
2022/06/18 06:33:18;;;;;;;7.47;3.60;;;24.90;99.90;;;;;;4955322;29;20532;-72
2022/06/18 06:35:44;;;;;;;6.13;3.60;;;25.00;99.90;;;;;;4955603;29;20901;-72
2022/06/18 06:38:11;;;;;;;3.40;3.10;;;25.10;99.90;;;;;;4955453;29;20444;-72
2022/06/18 06:40:36;;;;;;;5.93;3.42;;;25.10;99.90;;;;;;4954848;29;20450;-72
2022/06/18 06:43:03;;;;;;;6.80;3.63;;;25.20;99.90;;;;;;4955709;29;20178;-73
2022/06/18 06:45:33;;;;;;;11.60;4.03;;;25.30;99.90;;;;;;4955397;29;20558;-72
2022/06/18 06:48:02;;;;;;;7.13;3.90;;;25.30;99.90;;;;;;4955425;29;20744;-74
2022/06/18 06:50:29;;;;;;;7.40;4.33;;;25.40;99.90;;;;;;4955274;29;20830;-73
2022/06/18 06:52:55;;;;;;;10.63;3.93;;;25.40;99.90;;;;;;4955145;29;20473;-73
2022/06/18 06:58:10;;;;;;;9.60;4.17;;;25.60;99.50;;;;;;4955632;29;20887;-73
2022/06/18 07:00:39;;;;;;;5.47;3.73;;;25.60;99.20;;;;;;4955051;29;20513;-72
2022/06/18 07:03:04;;;;;;;6.33;4.60;;;25.70;99.50;;;;;;4938533;29;20451;-73
2022/06/18 07:05:30;;;;;;;6.43;3.60;;;25.80;98.60;;;;;;4935802;29;20435;-72
2022/06/18 07:07:56;;;;;;;4.83;3.37;;;25.80;99.20;;;;;;4935971;29;20183;-72
2022/06/18 07:10:21;;;;;;;14.43;4.10;;;25.90;98.00;;;;;;4935861;29;20178;-73
2022/06/18 07:12:47;;;;;;;4.10;3.67;;;25.90;98.10;;;;;;4935755;29;20179;-72
2022/06/18 07:15:13;;;;;;;6.00;3.50;;;25.90;97.40;;;;;;4935880;29;20538;-72
2022/06/18 07:17:40;;;;;;;7.30;4.30;;;25.90;98.00;;;;;;4935869;29;20190;-79
2022/06/18 07:20:09;;;;;;;7.30;3.70;;;25.90;98.50;;;;;;4936173;29;20431;-83
2022/06/18 07:22:35;;;;;;;5.80;4.20;;;26.00;97.40;;;;;;4936147;29;20847;-77
2022/06/18 07:25:01;;;;;;;5.20;3.80;;;26.10;96.90;;;;;;4935298;29;20429;-77
2022/06/18 07:27:29;;;;;;;6.70;3.60;;;26.10;96.90;;;;;;4936005;29;20179;-76
2022/06/18 07:29:56;;;;;;;12.40;3.80;;;26.10;96.50;;;;;;4935558;29;20179;-73
2022/06/18 07:32:21;;;;;;;7.40;4.30;;;26.10;96.80;;;;;;4935502;29;20981;-75
2022/06/18 07:34:47;;;;;;;7.03;5.40;;;26.20;96.40;;;;;;4936666;29;20445;-76
2022/06/18 07:37:12;;;;;;;9.27;3.93;;;26.20;96.80;;;;;;4935487;29;20182;-77
2022/06/18 07:39:38;;;;;;;8.80;4.40;;;26.30;97.20;;;;;;4934175;29;20175;-77
2022/06/18 07:42:05;;;;;;;12.43;4.90;;;26.30;97.40;;;;;;4935142;29;20625;-79
2022/06/18 07:44:31;;;;;;;7.63;3.80;;;26.30;97.40;;;;;;4934901;29;20504;-83
2022/06/18 07:47:02;;;;;;;5.30;4.17;;;26.40;96.40;;;;;;4934836;29;20441;-81
2022/06/18 07:49:27;;;;;;;8.60;3.80;;;26.50;95.80;;;;;;4934339;29;20433;-81
2022/06/18 07:51:53;;;;;;;6.53;3.87;;;26.50;95.30;;;;;;4934660;29;20279;-79
2022/06/18 07:54:19;;;;;;;9.20;4.13;;;26.60;95.30;;;;;;4934671;29;20186;-76
2022/06/18 07:56:45;;;;;;;6.93;4.30;;;26.60;95.10;;;;;;4941463;29;20233;-78
2022/06/18 07:59:12;;;;;;;8.30;3.90;;;26.70;94.70;;;;;;4927060;29;20522;-84
2022/06/18 08:01:38;;;;;;;7.05;3.90;;;26.70;95.40;;;;;;4914457;29;20455;-78
2022/06/18 08:04:05;;;;;;;9.90;3.40;;;26.90;94.00;;;;;;4929766;29;20212;-76
2022/06/18 08:06:30;;;;;;;5.17;4.13;;;27.00;93.90;;;;;;4934582;29;20479;-78
2022/06/18 08:08:56;;;;;;;7.00;3.60;;;27.00;93.50;;;;;;4934368;29;20914;-77
2022/06/18 08:11:23;;;;;;;6.30;4.30;;;27.00;93.60;;;;;;4934615;29;20536;-76
2022/06/18 08:13:50;;;;;;;5.23;3.93;;;27.00;92.90;;;;;;4932855;29;20176;-76
2022/06/18 08:16:16;;;;;;;10.20;3.93;;;27.00;93.90;;;;;;4925087;29;20434;-81
2022/06/18 08:18:43;;;;;;;5.93;4.30;;;26.90;93.80;;;;;;4934544;29;20422;-80
2022/06/18 08:21:18;;;;;;;6.70;4.07;;;27.00;94.00;;;;;;4934476;29;20470;-83
2022/06/18 08:23:44;;;;;;;7.60;4.10;;;27.10;94.30;;;;;;4933903;29;20426;-83
2022/06/18 08:26:10;;;;;;;10.93;4.80;;;27.20;93.80;;;;;;4934807;29;20918;-83
2022/06/18 08:28:37;;;;;;;8.00;4.13;;;27.30;93.40;;;;;;4935102;29;20437;-83
2022/06/18 08:31:05;;;;;;;8.53;4.97;;;27.40;91.50;;;;;;4918007;29;20686;-83
2022/06/18 08:33:30;;;;;;;9.47;4.53;;;27.40;93.40;;;;;;4935423;29;21010;-83
2022/06/18 08:35:57;;;;;;;6.77;4.90;;;27.60;94.00;;;;;;4935713;29;20430;-83
2022/06/18 08:38:24;;;;;;;10.43;4.73;;;27.60;91.90;;;;;;4938828;29;20662;-83
2022/06/18 08:41:08;;;;;;;10.93;4.33;;;27.70;91.80;;;;;;4938591;29;20480;-83
2022/06/18 08:44:16;;;;;;;5.13;3.63;;;27.80;91.60;;;;;;4938629;29;20932;-83
2022/06/18 08:46:48;;;;;;;9.00;3.70;;;27.80;92.40;;;;;;4938478;29;20438;-83
2022/06/18 08:49:33;;;;;;;6.87;3.83;;;27.90;91.90;;;;;;4938548;29;20506;-83
2022/06/18 08:52:31;;;;;;;5.07;4.03;;;28.00;91.40;;;;;;4938491;29;20430;-83
2022/06/18 08:55:09;;;;;;;5.50;3.80;;;28.00;91.20;;;;;;4927920;29;20438;-83
2022/06/18 08:57:46;;;;;;;8.17;4.20;;;28.10;91.50;;;;;;4938281;29;20431;-83
2022/06/18 09:00:33;;;;;;;9.47;3.90;;;28.20;91.60;;;;;;4938296;29;20423;-83
2022/06/18 09:03:27;;;;;;;9.07;4.00;;;28.20;90.00;;;;;;4938418;29;20533;-83
2022/06/18 09:06:19;;;;;;;9.87;4.17;;;28.30;90.30;;;;;;4938147;29;20426;-83
2022/06/18 09:08:51;;;;;;;9.60;3.70;;;28.40;86.20;;;;;;4938155;29;20431;-83
2022/06/18 09:11:23;;;;;;;10.63;3.20;;;28.40;84.60;;;;;;4938133;29;20980;-83
2022/06/18 09:14:01;;;;;;;7.53;3.97;;;28.40;85.80;;;;;;4938112;29;20431;-83
2022/06/18 09:16:43;;;;;;;6.67;3.70;;;28.50;85.30;;;;;;4937938;29;20494;-83
2022/06/18 09:19:13;;;;;;;12.00;4.87;;;28.60;83.70;;;;;;4937949;29;20421;-83
2022/06/18 09:21:56;;;;;;;7.70;4.07;;;28.50;86.30;;;;;;4937726;29;20474;-83
2022/06/18 09:24:39;;;;;;;7.10;4.03;;;28.60;82.70;;;;;;4937922;29;20445;-83
2022/06/18 09:27:12;;;;;;;6.90;4.47;;;28.60;83.40;;;;;;4938013;29;20443;-83
2022/06/18 09:29:47;;;;;;;6.00;3.77;;;28.70;85.30;;;;;;4920630;29;20998;-83
2022/06/18 09:32:42;;;;;;;5.47;3.73;;;28.80;83.70;;;;;;4937587;29;20900;-83
2022/06/18 09:35:23;;;;;;;11.20;3.87;;;28.80;82.70;;;;;;4937815;29;20419;-83
2022/06/18 09:38:00;;;;;;;6.33;3.97;;;28.80;81.30;;;;;;4937605;29;20431;-83
2022/06/18 09:40:37;;;;;;;9.77;4.23;;;28.90;82.20;;;;;;4937583;29;20414;-83
2022/06/18 09:43:45;;;;;;;10.27;3.90;;;28.90;80.40;;;;;;4937666;29;20441;-83
2022/06/18 09:46:33;;;;;;;7.80;4.07;;;29.00;80.30;;;;;;4937360;29;20798;-83
2022/06/18 09:48:59;;;;;;;7.03;3.67;;;29.10;78.50;;;;;;4937303;29;20795;-83
2022/06/18 09:51:41;;;;;;;5.47;3.87;;;29.10;82.60;;;;;;4937467;29;20521;-83
2022/06/18 09:54:10;;;;;;;10.50;4.50;;;29.20;79.40;;;;;;4937457;29;20179;-83
2022/06/18 09:56:50;;;;;;;9.57;4.17;;;29.20;83.40;;;;;;4937215;29;20419;-83
2022/06/18 09:59:28;;;;;;;4.37;3.37;;;29.10;83.00;;;;;;4937252;29;20579;-83
2022/06/18 10:01:56;;;;;;;7.17;4.33;;;29.30;79.50;;;;;;4937242;29;20508;-83
2022/06/18 10:07:22;;;;;;;11.87;4.00;;;29.30;83.30;;;;;;4937477;29;20490;-83
2022/06/18 10:09:56;;;;;;;10.53;4.73;;;29.40;80.50;;;;;;4936947;29;20462;-83
2022/06/18 10:12:23;;;;;;;9.10;4.80;;;29.40;77.70;;;;;;4937099;29;20422;-83
2022/06/18 10:14:58;;;;;;;10.40;4.87;;;29.40;79.80;;;;;;4936930;29;20450;-83
2022/06/18 10:17:27;;;;;;;6.60;4.50;;;29.50;79.90;;;;;;4936999;29;20651;-82
2022/06/18 10:20:11;;;;;;;6.40;3.93;;;29.60;80.70;;;;;;4936846;29;20453;-83
2022/06/18 10:22:49;;;;;;;5.87;3.87;;;29.70;80.00;;;;;;4936742;29;20470;-83
2022/06/18 10:25:23;;;;;;;16.47;4.53;;;29.70;83.50;;;;;;4936919;29;20427;-83
2022/06/18 10:28:10;;;;;;;11.43;4.37;;;29.80;79.00;;;;;;4936792;29;20435;-83
2022/06/18 10:30:53;;;;;;;11.33;4.00;;;29.90;78.50;;;;;;4936615;29;20554;-83
2022/06/18 10:33:47;;;;;;;9.03;3.93;;;29.90;78.80;;;;;;4936573;29;20430;-83
2022/06/18 10:36:35;;;;;;;13.33;4.53;;;30.00;78.60;;;;;;4936667;29;20437;-83
2022/06/18 10:39:17;;;;;;;12.37;4.10;;;30.00;73.80;;;;;;4936631;29;20511;-82
2022/06/18 10:42:01;;;;;;;12.17;4.60;;;30.00;75.10;;;;;;4936507;29;20474;-83
2022/06/18 10:44:58;;;;;;;12.10;4.20;;;30.10;74.30;;;;;;4936621;29;20416;-83
2022/06/18 10:47:34;;;;;;;6.70;4.27;;;30.20;76.10;;;;;;4936519;29;20778;-83
2022/06/18 10:50:06;;;;;;;9.20;4.80;;;30.20;79.20;;;;;;4936641;29;20443;-83
2022/06/18 10:52:31;;;;;;;9.17;4.67;;;30.20;76.20;;;;;;4936418;29;20524;-83
2022/06/18 10:55:15;;;;;;;8.20;4.60;;;30.10;75.90;;;;;;4936374;29;20522;-83
2022/06/18 10:57:41;;;;;;;8.67;4.67;;;30.20;74.60;;;;;;4936303;29;20258;-83
2022/06/18 11:00:24;;;;;;;9.23;4.23;;;30.30;73.10;;;;;;4935723;29;20494;-82
2022/06/18 11:02:56;;;;;;;9.37;4.33;;;30.30;77.60;;;;;;4936187;29;20194;-83
2022/06/18 11:05:27;;;;;;;8.20;4.33;;;30.50;73.00;;;;;;4936355;29;20446;-83
2022/06/18 11:07:53;;;;;;;5.83;3.90;;;30.60;77.50;;;;;;4936463;29;20437;-83
2022/06/18 11:10:43;;;;;;;14.00;4.37;;;30.60;70.70;;;;;;4936248;29;20427;-83
2022/06/18 11:13:33;;;;;;;9.20;4.20;;;30.70;69.80;;;;;;4927822;29;20564;-83
2022/06/18 11:16:16;;;;;;;11.73;4.50;;;30.70;73.00;;;;;;4937241;29;20825;-83
2022/06/18 11:18:51;;;;;;;9.33;4.43;;;30.90;71.80;;;;;;4937724;29;20438;-83
2022/06/18 11:21:36;;;;;;;12.33;4.27;;;31.00;71.50;;;;;;4936278;29;20949;-83
2022/06/18 11:24:10;;;;;;;12.23;5.63;;;31.00;73.80;;;;;;4936242;29;20430;-83
2022/06/18 11:26:42;;;;;;;13.50;4.00;;;31.00;72.20;;;;;;4936375;29;20469;-82
2022/06/18 11:29:29;;;;;;;8.13;4.30;;;31.00;70.10;;;;;;4939589;29;20423;-83
2022/06/18 11:31:58;;;;;;;13.53;5.07;;;31.10;69.20;;;;;;4926519;29;20518;-83
2022/06/18 11:34:36;;;;;;;10.87;4.73;;;31.20;68.90;;;;;;4942560;29;20981;-83
2022/06/18 11:37:23;;;;;;;7.03;3.87;;;31.30;68.70;;;;;;4942003;29;20973;-83
2022/06/18 11:39:57;;;;;;;7.83;4.40;;;31.40;67.60;;;;;;4935935;29;20911;-83
2022/06/18 11:42:37;;;;;;;7.40;4.60;;;31.40;66.40;;;;;;4936107;29;20541;-83
2022/06/18 11:45:26;;;;;;;8.13;4.40;;;31.50;65.30;;;;;;4936109;29;20422;-83
2022/06/18 11:48:18;;;;;;;7.37;4.50;;;31.60;65.00;;;;;;4935718;29;20431;-83
2022/06/18 11:50:56;;;;;;;8.10;3.63;;;31.70;64.10;;;;;;4935762;29;20964;-82
2022/06/18 11:53:33;;;;;;;10.70;3.30;;;31.80;63.30;;;;;;4935811;29;20521;-83
2022/06/18 11:56:00;;;;;;;10.53;5.00;;;31.90;63.80;;;;;;4935786;29;20423;-82
2022/06/18 11:58:48;;;;;;;9.90;5.03;;;31.80;62.50;;;;;;4936562;29;20427;-83
2022/06/18 12:01:39;;;;;;;10.07;3.90;;;32.00;63.30;;;;;;4935692;29;20466;-83
2022/06/18 12:04:22;;;;;;;7.13;4.10;;;32.00;61.20;;;;;;4935812;29;20491;-84
2022/06/18 12:06:59;;;;;;;13.80;4.70;;;32.00;63.10;;;;;;4935715;29;20490;-83
2022/06/18 12:09:27;;;;;;;18.70;5.40;;;32.10;62.90;;;;;;4935787;29;20792;-83
2022/06/18 12:12:04;;;;;;;19.20;4.70;;;32.10;62.00;;;;;;4938859;29;20961;-83
2022/06/18 12:14:45;;;;;;;8.77;4.90;;;32.20;62.50;;;;;;4939264;29;20993;-83
2022/06/18 12:17:36;;;;;;;12.57;3.60;;;32.20;63.00;;;;;;4939284;29;20441;-83
2022/06/18 12:20:52;;;;;;;14.83;4.87;;;32.30;66.70;;;;;;4939105;29;20454;-83
2022/06/18 12:23:21;;;;;;;12.47;4.70;;;32.40;62.30;;;;;;4906755;29;20458;-81
2022/06/18 12:26:20;;;;;;;15.03;5.57;;;32.50;63.00;;;;;;4938953;29;20439;-81
2022/06/18 12:29:33;;;;;;;10.87;4.30;;;32.50;59.10;;;;;;4938951;29;20435;-81
2022/06/18 12:32:28;;;;;;;12.40;5.33;;;32.60;61.70;;;;;;4926163;29;20474;-80
2022/06/18 12:35:14;;;;;;;14.90;4.50;;;32.70;60.60;;;;;;4938643;29;20557;-81
2022/06/18 12:37:54;;;;;;;14.67;4.47;;;32.70;58.70;;;;;;4938746;29;20430;-81
2022/06/18 12:40:20;;;;;;;12.60;5.00;;;32.80;59.30;;;;;;4938807;29;20780;-81
2022/06/18 12:42:52;;;;;;;11.00;4.10;;;32.90;58.20;;;;;;4938652;29;20419;-81
2022/06/18 12:45:58;;;;;;;5.80;4.10;;;33.00;60.50;;;;;;4938690;29;20199;-81
2022/06/18 12:48:53;;;;;;;17.87;4.50;;;33.00;59.40;;;;;;4921711;29;21026;-81
2022/06/18 12:51:33;;;;;;;8.30;4.20;;;33.10;59.90;;;;;;4938544;29;20470;-81
2022/06/18 12:54:16;;;;;;;10.87;4.90;;;33.20;56.30;;;;;;4938626;29;20776;-81
2022/06/18 12:57:10;;;;;;;13.30;4.70;;;33.30;57.60;;;;;;4938495;29;20411;-81
2022/06/18 12:59:58;;;;;;;11.73;4.47;;;33.40;56.00;;;;;;4938134;29;20931;-80
2022/06/18 13:02:45;;;;;;;8.97;3.63;;;33.50;55.70;;;;;;4921378;29;20435;-81
2022/06/18 13:05:19;;;;;;;6.80;3.97;;;33.40;55.30;;;;;;4938306;29;20833;-81
2022/06/18 13:07:50;;;;;;;10.30;4.33;;;33.40;55.00;;;;;;4938182;29;20431;-81
2022/06/18 13:10:44;;;;;;;17.00;4.60;;;33.50;53.70;;;;;;4938234;29;20439;-81
2022/06/18 13:13:10;;;;;;;12.48;4.45;;;33.40;55.20;;;;;;4938114;29;20445;-81
2022/06/18 13:15:39;;;;;;;9.50;3.97;;;33.30;54.20;;;;;;4938040;29;20610;-81
2022/06/18 13:18:08;;;;;;;8.10;4.17;;;33.40;54.20;;;;;;4938045;29;20577;-81
2022/06/18 13:20:48;;;;;;;16.40;4.10;;;33.50;55.10;;;;;;4937904;29;20490;-81
2022/06/18 13:29:00;;;;;;;9.93;4.50;;;33.60;54.70;;;;;;4938153;29;20882;-81
2022/06/18 13:31:43;;;;;;;9.67;4.93;;;33.70;53.40;;;;;;4937778;29;20486;-81
2022/06/18 13:34:11;;;;;;;12.10;4.20;;;33.60;53.20;;;;;;4937918;29;20427;-81
2022/06/18 13:37:04;;;;;;;11.00;4.30;;;33.70;53.50;;;;;;4937766;29;20485;-81
2022/06/18 13:39:45;;;;;;;16.57;5.07;;;33.60;54.30;;;;;;4937714;29;20485;-81
2022/06/18 13:42:13;;;;;;;7.00;4.33;;;33.70;53.90;;;;;;4937777;29;20431;-81
2022/06/18 13:45:16;;;;;;;9.83;4.03;;;33.80;54.00;;;;;;4937523;29;20427;-81
2022/06/18 13:48:02;;;;;;;13.27;4.20;;;33.90;53.30;;;;;;4937718;29;20442;-81
2022/06/18 13:50:55;;;;;;;11.63;4.40;;;33.90;53.50;;;;;;4937339;29;20458;-81
2022/06/18 13:53:37;;;;;;;9.40;4.30;;;33.90;53.70;;;;;;4934938;29;20886;-81
2022/06/18 13:56:23;;;;;;;20.13;5.80;;;33.90;54.10;;;;;;4937435;29;20434;-81
2022/06/18 13:58:55;;;;;;;8.80;4.20;;;33.90;53.70;;;;;;4920183;29;20429;-81
2022/06/18 14:01:22;;;;;;;10.77;3.90;;;34.00;54.90;;;;;;4937466;29;20442;-81
2022/06/18 14:03:52;;;;;;;8.43;4.80;;;34.00;55.40;;;;;;4937117;29;20481;-81
2022/06/18 14:06:20;;;;;;;11.53;5.40;;;34.00;55.00;;;;;;4937332;29;20426;-81
2022/06/18 14:08:50;;;;;;;10.07;4.27;;;34.00;54.10;;;;;;4936902;29;20459;-81
2022/06/18 14:11:36;;;;;;;7.43;4.97;;;34.10;53.80;;;;;;4937130;29;20476;-80
2022/06/18 14:14:04;;;;;;;10.60;4.80;;;34.10;53.40;;;;;;4937160;29;20423;-81
2022/06/18 14:16:35;;;;;;;14.93;5.17;;;34.10;54.70;;;;;;4937028;29;20439;-81
2022/06/18 14:19:19;;;;;;;14.50;4.50;;;34.20;54.00;;;;;;4919953;29;20427;-81
2022/06/18 14:21:46;;;;;;;9.50;4.97;;;34.20;53.30;;;;;;4936812;29;20481;-81
2022/06/18 14:24:12;;;;;;;8.67;4.67;;;34.20;53.90;;;;;;4936955;29;20446;-81
2022/06/18 14:26:42;;;;;;;14.77;4.70;;;34.20;53.90;;;;;;4936816;29;20427;-81
2022/06/18 14:29:09;;;;;;;10.90;4.90;;;34.20;55.00;;;;;;4936735;29;20921;-81
2022/06/18 14:31:56;;;;;;;10.00;3.83;;;34.30;53.10;;;;;;4936486;29;20539;-81
2022/06/18 14:34:34;;;;;;;11.13;4.63;;;34.30;56.20;;;;;;4936790;29;20423;-81
2022/06/18 14:37:09;;;;;;;12.90;5.20;;;34.10;54.20;;;;;;4936775;29;20521;-81
2022/06/18 14:39:47;;;;;;;11.23;4.80;;;33.90;55.20;;;;;;4936602;29;20509;-80
2022/06/18 14:42:46;;;;;;;13.77;5.10;;;33.80;54.80;;;;;;4936680;29;20430;-81
2022/06/18 14:45:54;;;;;;;14.00;4.50;;;33.60;53.50;;;;;;4936471;29;20914;-81
2022/06/18 14:48:39;;;;;;;16.57;4.77;;;33.70;54.20;;;;;;4936550;29;20431;-81
2022/06/18 14:51:08;;;;;;;20.57;5.47;;;33.80;55.00;;;;;;4936336;29;21024;-80
2022/06/18 14:54:04;;;;;;;10.37;4.57;;;33.80;54.70;;;;;;4936335;29;20446;-81
2022/06/18 14:56:52;;;;;;;8.93;5.20;;;33.80;55.10;;;;;;4936317;29;20509;-81
2022/06/18 14:59:39;;;;;;;11.00;5.13;;;33.80;56.20;;;;;;4936347;29;20526;-81
2022/06/18 15:02:29;;;;;;;14.23;4.23;;;33.80;55.30;;;;;;4936276;29;20430;-81
2022/06/18 15:04:57;;;;;;;10.37;5.23;;;33.80;54.30;;;;;;4936292;29;20543;-80
2022/06/18 15:07:34;;;;;;;25.80;5.80;;;33.90;53.40;;;;;;4936174;29;20435;-80
2022/06/18 15:10:12;;;;;;;13.43;6.00;;;34.00;53.30;;;;;;4936230;29;20934;-81
2022/06/18 15:12:38;;;;;;;14.60;4.60;;;34.10;53.00;;;;;;4936227;29;20481;-80
2022/06/18 15:15:07;;;;;;;9.90;4.90;;;34.00;53.70;;;;;;4936053;29;20435;-81
2022/06/18 15:17:48;;;;;;;10.27;5.20;;;34.20;53.60;;;;;;4936044;29;20435;-80
2022/06/18 15:25:22;;;;;;;9.10;4.67;;;34.20;52.30;;;;;;4936090;29;20461;-81
2022/06/18 15:27:47;;;;;;;11.30;4.80;;;34.20;53.10;;;;;;4935974;29;20424;-80
2022/06/18 15:30:30;;;;;;;17.03;5.73;;;34.00;53.80;;;;;;4935946;29;20423;-80
2022/06/18 15:33:00;;;;;;;10.83;5.37;;;34.00;54.30;;;;;;4934877;29;20229;-80
2022/06/18 15:35:28;;;;;;;10.67;4.37;;;33.90;54.90;;;;;;4935065;29;20830;-80
2022/06/18 15:37:56;;;;;;;12.53;5.37;;;34.00;53.70;;;;;;4935016;29;20486;-81
2022/06/18 15:40:33;;;;;;;11.43;5.30;;;34.00;53.30;;;;;;4934381;29;20426;-80
2022/06/18 15:43:02;;;;;;;8.77;4.80;;;33.90;55.40;;;;;;4935606;29;20457;-80
2022/06/18 15:45:33;;;;;;;7.70;4.50;;;33.90;55.20;;;;;;4936841;29;20431;-80
2022/06/18 15:48:03;;;;;;;10.43;5.40;;;33.90;53.90;;;;;;4939003;29;20438;-80
2022/06/18 15:50:31;;;;;;;8.20;5.03;;;33.90;55.60;;;;;;4938863;29;20466;-80
2022/06/18 15:52:57;;;;;;;13.17;5.50;;;33.90;53.70;;;;;;4938885;29;20450;-80
2022/06/18 15:55:44;;;;;;;12.37;5.40;;;34.00;52.30;;;;;;4938942;29;20583;-80
2022/06/18 15:58:09;;;;;;;11.13;5.17;;;33.80;51.80;;;;;;4938914;29;20446;-81
2022/06/18 16:00:38;;;;;;;8.33;5.97;;;33.70;53.30;;;;;;4938549;29;20427;-80
2022/06/18 16:03:16;;;;;;;11.83;4.57;;;33.70;55.10;;;;;;4938513;29;20234;-80
2022/06/18 16:05:44;;;;;;;10.93;4.90;;;33.60;53.60;;;;;;4938614;29;20942;-80
2022/06/18 16:08:42;;;;;;;6.00;4.67;;;33.60;55.40;;;;;;4938541;29;20431;-80
2022/06/18 16:11:20;;;;;;;13.80;5.13;;;33.50;53.40;;;;;;4938466;29;20474;-80
2022/06/18 16:13:47;;;;;;;17.53;4.67;;;33.50;55.60;;;;;;4938313;29;20510;-80
2022/06/18 16:16:27;;;;;;;8.67;4.63;;;33.40;55.90;;;;;;4938605;29;20863;-80
2022/06/18 16:18:59;;;;;;;10.60;5.10;;;33.40;56.40;;;;;;4938352;29;20875;-80
2022/06/18 16:21:25;;;;;;;12.13;5.47;;;33.40;54.60;;;;;;4938318;29;20523;-80
2022/06/18 16:23:52;;;;;;;10.23;4.77;;;33.30;56.00;;;;;;4938284;29;20430;-80
2022/06/18 16:26:47;;;;;;;11.73;4.90;;;33.30;57.70;;;;;;4937741;29;20434;-80
2022/06/18 16:29:21;;;;;;;11.33;5.40;;;33.30;55.40;;;;;;4937234;29;20466;-80
2022/06/18 16:31:47;;;;;;;13.40;5.23;;;33.30;57.00;;;;;;4938484;29;20486;-80
2022/06/18 16:34:13;;;;;;;16.00;5.07;;;33.20;56.60;;;;;;4938686;29;20425;-80
2022/06/18 16:37:36;;;;;;;9.87;5.23;;;33.10;56.30;;;;;;4938816;29;20175;-80
2022/06/18 16:40:11;;;;;;;11.10;5.67;;;33.00;56.10;;;;;;4880085;29;20449;-80
2022/06/18 16:42:51;;;;;;;12.00;6.20;;;32.90;56.60;;;;;;4879629;29;21605;-80
2022/06/18 16:45:16;;;;;;;17.53;6.87;;;32.80;57.30;;;;;;4915828;29;20440;-80